sensor_id;sensor_type;location;lat;lon;timestamp;pressure;altitude;pressure_sealevel;temperature;humidity
63808;BME280;49961;43.970;22.868;2023-04-01T00:00:11;100302.81;;;13.81;100.00
63808;BME280;49961;43.970;22.868;2023-04-01T00:01:13;100304.84;;;13.80;100.00
63808;BME280;49961;43.970;22.868;2023-04-01T00:02:14;100300.03;;;13.81;100.00
63808;BME280;49961;43.970;22.868;2023-04-01T00:03:14;100308.72;;;13.83;100.00
63808;BME280;49961;43.970;22.868;2023-04-01T00:04:15;100303.44;;;13.85;100.00
63808;BME280;49961;43.970;22.868;2023-04-01T00:05:15;100220.75;;;13.28;100.00
63808;BME280;49961;43.970;22.868;2023-04-01T00:06:19;100306.53;;;13.87;100.00
63808;BME280;49961;43.970;22.868;2023-04-01T00:07:19;100302.53;;;13.88;100.00
63808;BME280;49961;43.970;22.868;2023-04-01T00:08:20;100295.09;;;13.85;100.00
63808;BME280;49961;43.970;22.868;2023-04-01T00:09:20;100302.84;;;13.90;100.00
63808;BME280;49961;43.970;22.868;2023-04-01T00:10:21;100301.13;;;13.92;100.00
63808;BME280;49961;43.970;22.868;2023-04-01T00:11:22;100306.25;;;13.94;100.00
63808;BME280;49961;43.970;22.868;2023-04-01T00:12:22;100300.34;;;13.92;100.00
63808;BME280;49961;43.970;22.868;2023-04-01T00:13:25;100265.69;;;13.75;100.00
63808;BME280;49961;43.970;22.868;2023-04-01T00:14:26;100289.22;;;13.92;100.00
63808;BME280;49961;43.970;22.868;2023-04-01T00:15:26;100296.66;;;13.95;100.00
63808;BME280;49961;43.970;22.868;2023-04-01T00:16:27;100272.81;;;13.85;100.00
63808;BME280;49961;43.970;22.868;2023-04-01T00:17:28;100284.59;;;13.98;100.00
63808;BME280;49961;43.970;22.868;2023-04-01T00:18:28;100294.94;;;13.97;100.00
63808;BME280;49961;43.970;22.868;2023-04-01T00:19:29;100267.88;;;13.89;100.00
63808;BME280;49961;43.970;22.868;2023-04-01T00:20:29;100252.97;;;13.65;100.00
63808;BME280;49961;43.970;22.868;2023-04-01T00:21:30;100169.56;;;13.25;100.00
63808;BME280;49961;43.970;22.868;2023-04-01T00:22:31;100140.31;;;13.03;100.00
63808;BME280;49961;43.970;22.868;2023-04-01T00:23:31;100213.69;;;13.54;100.00
63808;BME280;49961;43.970;22.868;2023-04-01T00:24:32;100257.63;;;13.77;100.00
63808;BME280;49961;43.970;22.868;2023-04-01T00:25:32;100283.50;;;13.95;100.00
63808;BME280;49961;43.970;22.868;2023-04-01T00:26:32;100278.69;;;13.96;100.00
63808;BME280;49961;43.970;22.868;2023-04-01T00:27:33;100289.09;;;13.95;100.00
63808;BME280;49961;43.970;22.868;2023-04-01T00:28:34;100153.00;;;13.13;100.00
63808;BME280;49961;43.970;22.868;2023-04-01T00:29:34;100278.25;;;13.97;100.00
63808;BME280;49961;43.970;22.868;2023-04-01T00:30:36;100277.94;;;13.95;100.00
63808;BME280;49961;43.970;22.868;2023-04-01T00:31:37;100273.75;;;14.00;100.00
63808;BME280;49961;43.970;22.868;2023-04-01T00:32:37;100276.09;;;14.01;100.00
63808;BME280;49961;43.970;22.868;2023-04-01T00:33:39;100234.88;;;13.69;100.00
63808;BME280;49961;43.970;22.868;2023-04-01T00:34:40;100274.38;;;14.04;100.00
63808;BME280;49961;43.970;22.868;2023-04-01T00:35:41;100267.72;;;14.01;100.00
63808;BME280;49961;43.970;22.868;2023-04-01T00:36:42;100276.72;;;14.05;100.00
63808;BME280;49961;43.970;22.868;2023-04-01T00:37:42;100263.69;;;14.02;100.00
63808;BME280;49961;43.970;22.868;2023-04-01T00:38:43;100272.97;;;14.08;100.00
63808;BME280;49961;43.970;22.868;2023-04-01T00:39:43;100225.78;;;13.78;100.00
63808;BME280;49961;43.970;22.868;2023-04-01T00:40:45;100281.63;;;14.10;100.00
63808;BME280;49961;43.970;22.868;2023-04-01T00:41:46;100280.09;;;14.09;100.00
63808;BME280;49961;43.970;22.868;2023-04-01T00:42:46;100273.75;;;14.09;100.00
63808;BME280;49961;43.970;22.868;2023-04-01T00:43:49;100247.28;;;13.95;100.00
63808;BME280;49961;43.970;22.868;2023-04-01T00:44:54;100269.56;;;14.13;100.00
63808;BME280;49961;43.970;22.868;2023-04-01T00:45:55;100265.25;;;14.12;100.00
63808;BME280;49961;43.970;22.868;2023-04-01T00:46:55;100267.25;;;14.12;100.00
63808;BME280;49961;43.970;22.868;2023-04-01T00:47:59;100272.34;;;14.13;100.00
63808;BME280;49961;43.970;22.868;2023-04-01T00:49:02;100270.50;;;14.10;100.00
63808;BME280;49961;43.970;22.868;2023-04-01T00:50:02;100267.09;;;14.06;100.00
63808;BME280;49961;43.970;22.868;2023-04-01T00:51:09;100271.13;;;14.05;100.00
63808;BME280;49961;43.970;22.868;2023-04-01T00:52:14;100268.34;;;14.05;100.00
63808;BME280;49961;43.970;22.868;2023-04-01T00:53:17;100275.63;;;14.03;100.00
63808;BME280;49961;43.970;22.868;2023-04-01T00:54:20;100271.59;;;14.04;100.00
63808;BME280;49961;43.970;22.868;2023-04-01T00:55:23;100255.78;;;13.92;100.00
63808;BME280;49961;43.970;22.868;2023-04-01T00:56:46;100272.84;;;14.03;100.00
63808;BME280;49961;43.970;22.868;2023-04-01T00:57:50;100282.75;;;14.04;100.00
63808;BME280;49961;43.970;22.868;2023-04-01T00:59:00;100271.25;;;14.02;100.00
63808;BME280;49961;43.970;22.868;2023-04-01T01:00:05;100284.75;;;14.03;100.00
63808;BME280;49961;43.970;22.868;2023-04-01T01:01:08;100263.25;;;14.04;100.00
63808;BME280;49961;43.970;22.868;2023-04-01T01:02:11;100267.25;;;14.03;100.00
63808;BME280;49961;43.970;22.868;2023-04-01T01:03:12;100263.25;;;14.04;100.00
63808;BME280;49961;43.970;22.868;2023-04-01T01:04:24;100198.53;;;13.55;100.00
63808;BME280;49961;43.970;22.868;2023-04-01T01:05:55;100262.28;;;14.07;100.00
63808;BME280;49961;43.970;22.868;2023-04-01T01:08:21;100266.94;;;14.01;100.00
63808;BME280;49961;43.970;22.868;2023-04-01T01:10:23;100260.13;;;14.02;100.00
63808;BME280;49961;43.970;22.868;2023-04-01T01:11:05;100257.94;;;13.97;100.00
63808;BME280;49961;43.970;22.868;2023-04-01T01:13:17;100249.47;;;13.91;100.00
63808;BME280;49961;43.970;22.868;2023-04-01T01:14:25;100246.34;;;13.89;100.00
63808;BME280;49961;43.970;22.868;2023-04-01T01:16:41;100172.69;;;13.45;100.00
63808;BME280;49961;43.970;22.868;2023-04-01T01:27:09;100238.16;;;13.86;100.00
63808;BME280;49961;43.970;22.868;2023-04-01T01:33:32;100224.09;;;13.80;100.00
63808;BME280;49961;43.970;22.868;2023-04-01T01:35:54;100231.03;;;13.85;100.00
63808;BME280;49961;43.970;22.868;2023-04-01T01:36:59;100232.28;;;13.84;100.00
63808;BME280;49961;43.970;22.868;2023-04-01T01:38:04;100206.28;;;13.78;100.00
63808;BME280;49961;43.970;22.868;2023-04-01T01:39:07;100205.66;;;13.83;100.00
63808;BME280;49961;43.970;22.868;2023-04-01T01:40:11;100223.59;;;13.82;100.00
63808;BME280;49961;43.970;22.868;2023-04-01T01:41:14;100174.41;;;13.61;100.00
63808;BME280;49961;43.970;22.868;2023-04-01T01:42:18;100214.16;;;13.88;100.00
63808;BME280;49961;43.970;22.868;2023-04-01T01:43:26;100214.00;;;13.92;100.00
63808;BME280;49961;43.970;22.868;2023-04-01T01:44:31;100206.25;;;13.87;100.00
63808;BME280;49961;43.970;22.868;2023-04-01T01:45:35;100212.00;;;13.92;100.00
63808;BME280;49961;43.970;22.868;2023-04-01T01:46:39;100219.28;;;13.90;100.00
63808;BME280;49961;43.970;22.868;2023-04-01T01:47:41;100122.25;;;13.16;100.00
63808;BME280;49961;43.970;22.868;2023-04-01T01:48:43;100200.22;;;13.79;100.00
63808;BME280;49961;43.970;22.868;2023-04-01T01:49:45;100210.28;;;13.86;100.00
63808;BME280;49961;43.970;22.868;2023-04-01T01:50:47;100206.13;;;13.90;100.00
63808;BME280;49961;43.970;22.868;2023-04-01T01:51:48;100211.22;;;13.92;100.00
63808;BME280;49961;43.970;22.868;2023-04-01T01:52:49;100203.94;;;13.94;100.00
63808;BME280;49961;43.970;22.868;2023-04-01T01:53:49;100203.81;;;13.98;100.00
63808;BME280;49961;43.970;22.868;2023-04-01T01:54:51;100199.44;;;13.97;100.00
63808;BME280;49961;43.970;22.868;2023-04-01T01:55:52;100197.44;;;13.97;100.00
63808;BME280;49961;43.970;22.868;2023-04-01T01:57:03;100191.72;;;14.01;100.00
63808;BME280;49961;43.970;22.868;2023-04-01T01:58:13;100192.97;;;14.00;100.00
63808;BME280;49961;43.970;22.868;2023-04-01T01:59:17;100196.22;;;13.98;100.00
63808;BME280;49961;43.970;22.868;2023-04-01T02:00:20;100181.66;;;13.94;100.00
63808;BME280;49961;43.970;22.868;2023-04-01T02:01:27;100183.69;;;14.03;100.00
63808;BME280;49961;43.970;22.868;2023-04-01T02:02:28;100181.34;;;14.01;100.00
63808;BME280;49961;43.970;22.868;2023-04-01T02:03:34;100185.06;;;14.07;100.00
63808;BME280;49961;43.970;22.868;2023-04-01T02:04:39;100182.56;;;14.09;100.00
63808;BME280;49961;43.970;22.868;2023-04-01T02:05:41;100185.34;;;14.09;100.00
63808;BME280;49961;43.970;22.868;2023-04-01T02:06:49;100184.91;;;14.11;100.00
63808;BME280;49961;43.970;22.868;2023-04-01T02:08:01;100181.66;;;14.12;100.00
63808;BME280;49961;43.970;22.868;2023-04-01T02:09:05;100182.91;;;14.11;100.00
63808;BME280;49961;43.970;22.868;2023-04-01T02:10:08;100184.44;;;14.12;100.00
63808;BME280;49961;43.970;22.868;2023-04-01T02:11:11;100176.84;;;14.13;100.00
63808;BME280;49961;43.970;22.868;2023-04-01T02:12:14;100179.94;;;14.15;100.00
63808;BME280;49961;43.970;22.868;2023-04-01T02:13:24;100180.69;;;14.15;100.00
63808;BME280;49961;43.970;22.868;2023-04-01T02:14:31;100170.34;;;14.07;100.00
63808;BME280;49961;43.970;22.868;2023-04-01T02:15:41;100188.59;;;14.17;100.00
63808;BME280;49961;43.970;22.868;2023-04-01T02:16:47;100192.50;;;14.19;100.00
63808;BME280;49961;43.970;22.868;2023-04-01T02:17:50;100186.94;;;14.19;100.00
63808;BME280;49961;43.970;22.868;2023-04-01T02:18:53;100193.09;;;14.14;100.00
63808;BME280;49961;43.970;22.868;2023-04-01T02:20:10;100192.63;;;14.16;100.00
63808;BME280;49961;43.970;22.868;2023-04-01T02:21:13;100195.72;;;14.18;100.00
63808;BME280;49961;43.970;22.868;2023-04-01T02:22:18;100195.59;;;14.12;100.00
63808;BME280;49961;43.970;22.868;2023-04-01T02:23:20;100138.38;;;13.75;100.00
63808;BME280;49961;43.970;22.868;2023-04-01T02:24:21;100204.09;;;14.09;100.00
63808;BME280;49961;43.970;22.868;2023-04-01T02:25:27;100064.28;;;13.15;100.00
63808;BME280;49961;43.970;22.868;2023-04-01T02:26:29;100211.69;;;13.99;100.00
63808;BME280;49961;43.970;22.868;2023-04-01T02:27:30;100210.13;;;13.98;100.00
63808;BME280;49961;43.970;22.868;2023-04-01T02:28:31;100194.38;;;13.77;100.00
63808;BME280;49961;43.970;22.868;2023-04-01T02:29:33;100200.22;;;13.79;100.00
63808;BME280;49961;43.970;22.868;2023-04-01T02:30:35;100197.44;;;13.79;100.00
63808;BME280;49961;43.970;22.868;2023-04-01T02:31:37;100209.66;;;13.82;100.00
63808;BME280;49961;43.970;22.868;2023-04-01T02:32:38;100200.72;;;13.78;100.00
63808;BME280;49961;43.970;22.868;2023-04-01T02:33:39;100209.53;;;13.85;100.00
63808;BME280;49961;43.970;22.868;2023-04-01T02:34:40;100209.53;;;13.85;100.00
63808;BME280;49961;43.970;22.868;2023-04-01T02:35:41;100210.00;;;13.84;100.00
63808;BME280;49961;43.970;22.868;2023-04-01T02:36:42;100212.00;;;13.83;100.00
63808;BME280;49961;43.970;22.868;2023-04-01T02:37:44;100215.88;;;13.86;100.00
63808;BME280;49961;43.970;22.868;2023-04-01T02:38:47;100214.00;;;13.92;100.00
63808;BME280;49961;43.970;22.868;2023-04-01T02:39:49;100208.91;;;13.90;100.00
63808;BME280;49961;43.970;22.868;2023-04-01T02:40:57;100215.41;;;13.87;100.00
63808;BME280;49961;43.970;22.868;2023-04-01T02:41:57;100212.31;;;13.94;100.00
63808;BME280;49961;43.970;22.868;2023-04-01T02:42:58;100205.50;;;13.77;100.00
63808;BME280;49961;43.970;22.868;2023-04-01T02:43:58;100216.66;;;13.86;100.00
63808;BME280;49961;43.970;22.868;2023-04-01T02:44:59;100201.00;;;13.71;100.00
63808;BME280;49961;43.970;22.868;2023-04-01T02:46:00;100210.00;;;13.84;100.00
63808;BME280;49961;43.970;22.868;2023-04-01T02:47:02;100104.47;;;13.14;100.00
63808;BME280;49961;43.970;22.868;2023-04-01T02:48:02;100205.50;;;13.86;100.00
63808;BME280;49961;43.970;22.868;2023-04-01T02:49:03;100115.31;;;13.21;100.00
63808;BME280;49961;43.970;22.868;2023-04-01T02:50:04;100207.50;;;13.86;100.00
63808;BME280;49961;43.970;22.868;2023-04-01T02:51:05;100189.56;;;13.78;100.00
63808;BME280;49961;43.970;22.868;2023-04-01T02:52:06;100211.38;;;13.88;100.00
63808;BME280;49961;43.970;22.868;2023-04-01T02:53:06;100201.78;;;13.89;100.00
63808;BME280;49961;43.970;22.868;2023-04-01T02:54:07;100199.31;;;13.82;100.00
63808;BME280;49961;43.970;22.868;2023-04-01T02:55:07;100204.56;;;13.89;100.00
63808;BME280;49961;43.970;22.868;2023-04-01T02:56:08;100203.81;;;13.89;100.00
63808;BME280;49961;43.970;22.868;2023-04-01T02:57:08;100206.88;;;13.91;100.00
63808;BME280;49961;43.970;22.868;2023-04-01T02:58:09;100056.81;;;12.94;100.00
63808;BME280;49961;43.970;22.868;2023-04-01T02:59:10;100192.81;;;13.94;100.00
63808;BME280;49961;43.970;22.868;2023-04-01T03:00:10;100199.16;;;13.95;100.00
63808;BME280;49961;43.970;22.868;2023-04-01T03:01:11;100193.41;;;13.98;100.00
63808;BME280;49961;43.970;22.868;2023-04-01T03:02:12;100193.75;;;14.00;100.00
63808;BME280;49961;43.970;22.868;2023-04-01T03:03:13;100192.03;;;14.03;100.00
63808;BME280;49961;43.970;22.868;2023-04-01T03:04:13;100172.72;;;13.90;100.00
63808;BME280;49961;43.970;22.868;2023-04-01T03:05:14;100186.94;;;14.01;100.00
63808;BME280;49961;43.970;22.868;2023-04-01T03:06:16;100076.19;;;13.33;100.00
63808;BME280;49961;43.970;22.868;2023-04-01T03:07:16;100184.59;;;14.09;100.00
63808;BME280;49961;43.970;22.868;2023-04-01T03:08:17;100178.72;;;14.07;100.00
63808;BME280;49961;43.970;22.868;2023-04-01T03:09:17;100186.59;;;14.08;100.00
63808;BME280;49961;43.970;22.868;2023-04-01T03:10:17;100187.06;;;14.07;100.00
63808;BME280;49961;43.970;22.868;2023-04-01T03:11:18;100185.97;;;14.13;100.00
63808;BME280;49961;43.970;22.868;2023-04-01T03:12:18;100168.22;;;13.93;100.00
63808;BME280;49961;43.970;22.868;2023-04-01T03:13:19;100187.84;;;14.07;100.00
63808;BME280;49961;43.970;22.868;2023-04-01T03:14:19;100182.41;;;14.13;100.00
63808;BME280;49961;43.970;22.868;2023-04-01T03:15:20;100163.22;;;14.06;100.00
63808;BME280;49961;43.970;22.868;2023-04-01T03:16:21;100179.47;;;14.16;100.00
63808;BME280;49961;43.970;22.868;2023-04-01T03:17:21;100171.25;;;14.13;100.00
63808;BME280;49961;43.970;22.868;2023-04-01T03:18:21;100175.78;;;14.19;100.00
63808;BME280;49961;43.970;22.868;2023-04-01T03:19:22;100178.56;;;14.19;100.00
63808;BME280;49961;43.970;22.868;2023-04-01T03:20:22;100172.66;;;14.17;100.00
63808;BME280;49961;43.970;22.868;2023-04-01T03:21:24;100171.75;;;14.11;100.00
63808;BME280;49961;43.970;22.868;2023-04-01T03:22:24;100174.38;;;14.15;100.00
63808;BME280;49961;43.970;22.868;2023-04-01T03:23:24;100166.47;;;14.13;100.00
63808;BME280;49961;43.970;22.868;2023-04-01T03:24:25;100170.22;;;14.19;100.00
63808;BME280;49961;43.970;22.868;2023-04-01T03:25:25;100165.22;;;14.14;100.00
63808;BME280;49961;43.970;22.868;2023-04-01T03:26:28;100169.28;;;14.04;100.00
63808;BME280;49961;43.970;22.868;2023-04-01T03:27:29;100167.72;;;13.94;100.00
63808;BME280;49961;43.970;22.868;2023-04-01T03:28:29;100164.94;;;13.94;100.00
63808;BME280;49961;43.970;22.868;2023-04-01T03:29:30;100165.72;;;13.95;100.00
63808;BME280;49961;43.970;22.868;2023-04-01T03:32:27;100167.88;;;13.82;100.00
63808;BME280;49961;43.970;22.868;2023-04-01T03:33:27;100172.25;;;13.83;100.00
63808;BME280;49961;43.970;22.868;2023-04-01T03:34:28;100164.97;;;13.85;100.00
63808;BME280;49961;43.970;22.868;2023-04-01T03:35:28;100160.63;;;13.84;100.00
63808;BME280;49961;43.970;22.868;2023-04-01T03:36:29;100167.44;;;13.92;100.00
63808;BME280;49961;43.970;22.868;2023-04-01T03:37:29;100144.41;;;13.74;100.00
63808;BME280;49961;43.970;22.868;2023-04-01T03:38:30;100159.06;;;13.83;100.00
63808;BME280;49961;43.970;22.868;2023-04-01T03:39:30;100160.78;;;13.90;100.00
63808;BME280;49961;43.970;22.868;2023-04-01T03:40:31;100016.22;;;13.05;100.00
63808;BME280;49961;43.970;22.868;2023-04-01T03:41:35;100162.78;;;13.98;100.00
63808;BME280;49961;43.970;22.868;2023-04-01T03:42:37;100156.59;;;14.03;100.00
63808;BME280;49961;43.970;22.868;2023-04-01T03:43:37;100155.66;;;14.06;100.00
63808;BME280;49961;43.970;22.868;2023-04-01T03:44:37;100164.31;;;13.99;100.00
63808;BME280;49961;43.970;22.868;2023-04-01T03:45:49;100158.75;;;13.99;100.00
63808;BME280;49961;43.970;22.868;2023-04-01T03:46:50;100166.81;;;14.06;100.00
63808;BME280;49961;43.970;22.868;2023-04-01T03:47:50;100158.56;;;14.12;100.00
63808;BME280;49961;43.970;22.868;2023-04-01T03:48:51;100158.75;;;14.08;100.00
63808;BME280;49961;43.970;22.868;2023-04-01T03:49:51;100163.56;;;13.99;100.00
63808;BME280;49961;43.970;22.868;2023-04-01T03:50:52;100157.81;;;14.02;100.00
63808;BME280;49961;43.970;22.868;2023-04-01T03:51:52;100165.09;;;14.00;100.00
63808;BME280;49961;43.970;22.868;2023-04-01T03:52:53;100157.66;;;13.97;100.00
63808;BME280;49961;43.970;22.868;2023-04-01T03:53:53;100154.88;;;13.97;100.00
63808;BME280;49961;43.970;22.868;2023-04-01T03:54:54;100069.53;;;13.40;100.00
63808;BME280;49961;43.970;22.868;2023-04-01T03:55:55;100159.81;;;14.02;100.00
63808;BME280;49961;43.970;22.868;2023-04-01T03:56:55;100151.19;;;13.91;100.00
63808;BME280;49961;43.970;22.868;2023-04-01T03:57:58;100162.78;;;13.98;100.00
63808;BME280;49961;43.970;22.868;2023-04-01T03:59:01;100167.44;;;13.92;100.00
63808;BME280;49961;43.970;22.868;2023-04-01T04:00:02;100139.28;;;13.81;100.00
63808;BME280;49961;43.970;22.868;2023-04-01T04:01:03;100155.03;;;13.93;100.00
63808;BME280;49961;43.970;22.868;2023-04-01T04:02:04;100048.53;;;13.21;100.00
63808;BME280;49961;43.970;22.868;2023-04-01T04:03:06;100145.16;;;13.92;100.00
63808;BME280;49961;43.970;22.868;2023-04-01T04:04:06;100131.22;;;13.83;100.00
63808;BME280;49961;43.970;22.868;2023-04-01T04:05:07;100145.94;;;13.93;100.00
63808;BME280;49961;43.970;22.868;2023-04-01T04:06:11;100144.06;;;13.99;100.00
63808;BME280;49961;43.970;22.868;2023-04-01T04:07:12;100059.97;;;13.50;100.00
63808;BME280;49961;43.970;22.868;2023-04-01T04:08:12;100138.47;;;14.08;100.00
63808;BME280;49961;43.970;22.868;2023-04-01T04:09:13;100034.16;;;13.40;100.00
63808;BME280;49961;43.970;22.868;2023-04-01T04:10:13;100138.59;;;14.13;100.00
63808;BME280;49961;43.970;22.868;2023-04-01T04:11:14;100138.16;;;14.15;100.00
63808;BME280;49961;43.970;22.868;2023-04-01T04:12:15;100139.22;;;14.17;100.00
63808;BME280;49961;43.970;22.868;2023-04-01T04:13:16;100022.69;;;13.47;100.00
63808;BME280;49961;43.970;22.868;2023-04-01T04:14:16;100146.53;;;14.24;100.00
63808;BME280;49961;43.970;22.868;2023-04-01T04:15:17;100043.25;;;13.59;100.00
63808;BME280;49961;43.970;22.868;2023-04-01T04:16:18;100052.22;;;13.63;100.00
63808;BME280;49961;43.970;22.868;2023-04-01T04:17:18;100150.69;;;14.28;100.00
63808;BME280;49961;43.970;22.868;2023-04-01T04:18:19;99985.59;;;13.23;100.00
63808;BME280;49961;43.970;22.868;2023-04-01T04:19:19;100144.03;;;14.26;100.00
63808;BME280;49961;43.970;22.868;2023-04-01T04:20:20;100143.09;;;14.29;100.00
63808;BME280;49961;43.970;22.868;2023-04-01T04:21:20;100140.59;;;14.31;100.00
63808;BME280;49961;43.970;22.868;2023-04-01T04:22:20;100142.94;;;14.32;100.00
63808;BME280;49961;43.970;22.868;2023-04-01T04:23:21;100137.34;;;14.32;100.00
63808;BME280;49961;43.970;22.868;2023-04-01T04:24:22;100126.69;;;14.22;100.00
63808;BME280;49961;43.970;22.868;2023-04-01T04:25:22;100144.03;;;14.26;100.00
63808;BME280;49961;43.970;22.868;2023-04-01T04:26:22;100145.56;;;14.27;100.00
63808;BME280;49961;43.970;22.868;2023-04-01T04:27:23;100139.81;;;14.30;100.00
63808;BME280;49961;43.970;22.868;2023-04-01T04:28:24;100140.75;;;14.36;100.00
63808;BME280;49961;43.970;22.868;2023-04-01T04:29:24;100138.59;;;14.31;100.00
63808;BME280;49961;43.970;22.868;2023-04-01T04:30:25;100140.91;;;14.33;100.00
63808;BME280;49961;43.970;22.868;2023-04-01T04:31:26;100031.03;;;13.56;100.00
63808;BME280;49961;43.970;22.868;2023-04-01T04:32:26;100088.09;;;13.79;100.00
63808;BME280;49961;43.970;22.868;2023-04-01T04:33:27;100140.16;;;14.23;100.00
63808;BME280;49961;43.970;22.868;2023-04-01T04:34:28;100130.72;;;14.21;100.00
63808;BME280;49961;43.970;22.868;2023-04-01T04:35:28;100140.59;;;14.31;100.00
63808;BME280;49961;43.970;22.868;2023-04-01T04:36:29;100136.91;;;14.34;100.00
63808;BME280;49961;43.970;22.868;2023-04-01T04:37:29;100136.41;;;14.35;100.00
63808;BME280;49961;43.970;22.868;2023-04-01T04:38:30;100135.81;;;14.31;100.00
63808;BME280;49961;43.970;22.868;2023-04-01T04:39:30;100127.00;;;14.15;100.00
63808;BME280;49961;43.970;22.868;2023-04-01T04:40:31;100129.97;;;13.93;100.00
63808;BME280;49961;43.970;22.868;2023-04-01T04:41:31;100119.16;;;13.86;100.00
63808;BME280;49961;43.970;22.868;2023-04-01T04:42:32;100127.19;;;13.93;100.00
63808;BME280;49961;43.970;22.868;2023-04-01T04:43:32;100119.44;;;13.97;100.00
63808;BME280;49961;43.970;22.868;2023-04-01T04:44:33;100118.53;;;14.00;100.00
63808;BME280;49961;43.970;22.868;2023-04-01T04:45:33;100125.00;;;14.06;100.00
63808;BME280;49961;43.970;22.868;2023-04-01T04:46:33;100125.78;;;14.07;100.00
63808;BME280;49961;43.970;22.868;2023-04-01T04:47:34;100119.56;;;14.12;100.00
63808;BME280;49961;43.970;22.868;2023-04-01T04:48:35;100118.31;;;14.13;100.00
63808;BME280;49961;43.970;22.868;2023-04-01T04:49:35;100099.63;;;14.04;100.00
63808;BME280;49961;43.970;22.868;2023-04-01T04:50:36;100123.63;;;14.20;100.00
63808;BME280;49961;43.970;22.868;2023-04-01T04:51:37;100124.38;;;14.20;100.00
63808;BME280;49961;43.970;22.868;2023-04-01T04:52:37;100117.09;;;14.23;100.00
63808;BME280;49961;43.970;22.868;2023-04-01T04:53:38;100124.53;;;14.26;100.00
63808;BME280;49961;43.970;22.868;2023-04-01T04:54:38;100121.72;;;14.26;100.00
63808;BME280;49961;43.970;22.868;2023-04-01T04:55:43;100128.53;;;14.16;100.00
63808;BME280;49961;43.970;22.868;2023-04-01T04:56:44;100115.84;;;14.15;100.00
63808;BME280;49961;43.970;22.868;2023-04-01T04:57:45;100116.63;;;14.15;100.00
63808;BME280;49961;43.970;22.868;2023-04-01T04:58:45;100065.00;;;13.87;100.00
63808;BME280;49961;43.970;22.868;2023-04-01T04:59:45;100112.91;;;14.27;100.00
63808;BME280;49961;43.970;22.868;2023-04-01T05:00:46;100108.72;;;14.32;100.00
63808;BME280;49961;43.970;22.868;2023-04-01T05:01:47;100106.25;;;14.34;100.00
63808;BME280;49961;43.970;22.868;2023-04-01T05:02:47;100107.59;;;14.38;100.00
63808;BME280;49961;43.970;22.868;2023-04-01T05:03:48;100000.06;;;13.72;100.00
63808;BME280;49961;43.970;22.868;2023-04-01T05:04:49;100104.97;;;14.44;100.00
63808;BME280;49961;43.970;22.868;2023-04-01T05:05:51;100106.03;;;14.46;100.00
63808;BME280;49961;43.970;22.868;2023-04-01T05:06:52;100108.47;;;14.53;100.00
63808;BME280;49961;43.970;22.868;2023-04-01T05:07:53;100060.59;;;14.22;100.00
63808;BME280;49961;43.970;22.868;2023-04-01T05:08:53;100118.19;;;14.58;100.00
63808;BME280;49961;43.970;22.868;2023-04-01T05:09:54;100004.81;;;13.81;100.00
63808;BME280;49961;43.970;22.868;2023-04-01T05:10:54;100129.34;;;14.58;100.00
63808;BME280;49961;43.970;22.868;2023-04-01T05:11:55;100124.09;;;14.60;100.00
63808;BME280;49961;43.970;22.868;2023-04-01T05:12:55;100121.59;;;14.62;100.00
63808;BME280;49961;43.970;22.868;2023-04-01T05:13:55;100115.25;;;14.61;100.00
63808;BME280;49961;43.970;22.868;2023-04-01T05:14:56;100114.78;;;14.63;100.00
63808;BME280;49961;43.970;22.868;2023-04-01T05:15:56;100117.88;;;14.65;100.00
63808;BME280;49961;43.970;22.868;2023-04-01T05:16:57;100110.63;;;14.58;100.00
63808;BME280;49961;43.970;22.868;2023-04-01T05:17:57;100126.06;;;14.68;100.00
63808;BME280;49961;43.970;22.868;2023-04-01T05:18:58;100124.81;;;14.69;100.00
63808;BME280;49961;43.970;22.868;2023-04-01T05:19:59;100128.69;;;14.72;100.00
63808;BME280;49961;43.970;22.868;2023-04-01T05:20:59;100054.25;;;14.22;100.00
63808;BME280;49961;43.970;22.868;2023-04-01T05:22:00;100134.25;;;14.72;100.00
63808;BME280;49961;43.970;22.868;2023-04-01T05:23:00;100130.88;;;14.68;100.00
63808;BME280;49961;43.970;22.868;2023-04-01T05:24:01;100067.53;;;14.27;100.00
63808;BME280;49961;43.970;22.868;2023-04-01T05:25:01;100114.50;;;14.52;100.00
63808;BME280;49961;43.970;22.868;2023-04-01T05:26:07;100118.91;;;14.44;100.00
63808;BME280;49961;43.970;22.868;2023-04-01T05:27:08;100011.66;;;13.80;100.00
63808;BME280;49961;43.970;22.868;2023-04-01T05:28:08;100120.38;;;14.54;100.00
63808;BME280;49961;43.970;22.868;2023-04-01T05:29:09;100116.06;;;14.53;100.00
63808;BME280;49961;43.970;22.868;2023-04-01T05:30:10;100083.34;;;14.30;100.00
63808;BME280;49961;43.970;22.868;2023-04-01T05:31:11;100117.00;;;14.50;100.00
63808;BME280;49961;43.970;22.868;2023-04-01T05:32:11;100106.16;;;14.52;100.00
63808;BME280;49961;43.970;22.868;2023-04-01T05:33:12;99968.38;;;13.61;100.00
63808;BME280;49961;43.970;22.868;2023-04-01T05:34:13;100105.53;;;14.48;100.00
63808;BME280;49961;43.970;22.868;2023-04-01T05:35:13;100105.06;;;14.49;100.00
63808;BME280;49961;43.970;22.868;2023-04-01T05:36:15;100107.88;;;14.49;100.00
63808;BME280;49961;43.970;22.868;2023-04-01T05:37:16;100044.34;;;14.12;100.00